sensor_id;sensor_type;location;lat;lon;timestamp;P1;P2;P0
35654;PMS1003;21773;50.010;19.972;2023-03-12T00:00:55;25.50;23.00;19.50
35654;PMS1003;21773;50.010;19.972;2023-03-12T00:04:00;23.40;21.00;18.80
35654;PMS1003;21773;50.010;19.972;2023-03-12T00:07:04;21.00;20.00;18.00
35654;PMS1003;21773;50.010;19.972;2023-03-12T00:10:10;24.80;23.80;20.00
35654;PMS1003;21773;50.010;19.972;2023-03-12T00:13:15;23.00;22.00;20.00
35654;PMS1003;21773;50.010;19.972;2023-03-12T00:16:19;23.00;22.40;20.00
35654;PMS1003;21773;50.010;19.972;2023-03-12T00:19:25;22.00;19.60;18.00
35654;PMS1003;21773;50.010;19.972;2023-03-12T00:22:29;20.60;19.00;16.20
35654;PMS1003;21773;50.010;19.972;2023-03-12T00:25:32;17.40;16.00;14.20
35654;PMS1003;21773;50.010;19.972;2023-03-12T00:28:37;20.00;18.00;16.00
35654;PMS1003;21773;50.010;19.972;2023-03-12T00:31:41;20.50;18.75;17.75
35654;PMS1003;21773;50.010;19.972;2023-03-12T00:34:49;19.50;18.75;17.00
35654;PMS1003;21773;50.010;19.972;2023-03-12T00:37:52;20.00;18.40;16.40
35654;PMS1003;21773;50.010;19.972;2023-03-12T00:40:56;19.00;17.00;15.00
35654;PMS1003;21773;50.010;19.972;2023-03-12T00:44:00;18.00;17.00;16.00
35654;PMS1003;21773;50.010;19.972;2023-03-12T00:47:04;21.60;20.60;18.60
35654;PMS1003;21773;50.010;19.972;2023-03-12T00:50:08;19.60;18.00;17.00
35654;PMS1003;21773;50.010;19.972;2023-03-12T00:53:12;22.75;21.75;19.25
35654;PMS1003;21773;50.010;19.972;2023-03-12T00:56:15;22.60;20.00;19.00
35654;PMS1003;21773;50.010;19.972;2023-03-12T00:59:21;22.50;21.50;20.00
35654;PMS1003;21773;50.010;19.972;2023-03-12T01:02:24;24.40;23.00;20.00
35654;PMS1003;21773;50.010;19.972;2023-03-12T01:05:29;19.80;18.80;15.80
35654;PMS1003;21773;50.010;19.972;2023-03-12T01:08:35;23.00;21.00;19.00
35654;PMS1003;21773;50.010;19.972;2023-03-12T01:11:39;22.00;21.00;19.00
35654;PMS1003;21773;50.010;19.972;2023-03-12T01:14:43;23.00;20.00;17.67
35654;PMS1003;21773;50.010;19.972;2023-03-12T01:17:47;23.60;22.60;19.80
35654;PMS1003;21773;50.010;19.972;2023-03-12T01:20:50;24.60;23.60;20.00
35654;PMS1003;21773;50.010;19.972;2023-03-12T01:23:54;22.50;20.00;18.50
35654;PMS1003;21773;50.010;19.972;2023-03-12T01:26:58;19.40;19.20;17.00
35654;PMS1003;21773;50.010;19.972;2023-03-12T01:30:03;19.00;18.60;17.00
35654;PMS1003;21773;50.010;19.972;2023-03-12T01:33:07;23.00;22.00;20.00
35654;PMS1003;21773;50.010;19.972;2023-03-12T01:36:14;24.20;21.40;19.40
35654;PMS1003;21773;50.010;19.972;2023-03-12T01:39:20;24.20;22.00;19.20
35654;PMS1003;21773;50.010;19.972;2023-03-12T01:42:23;26.00;24.00;21.00
35654;PMS1003;21773;50.010;19.972;2023-03-12T01:49:05;24.40;22.00;20.00
35654;PMS1003;21773;50.010;19.972;2023-03-12T01:52:12;24.40;21.60;19.00
35654;PMS1003;21773;50.010;19.972;2023-03-12T01:55:22;24.00;23.00;20.00
35654;PMS1003;21773;50.010;19.972;2023-03-12T01:58:26;21.00;20.00;18.00
35654;PMS1003;21773;50.010;19.972;2023-03-12T02:01:34;23.60;21.00;18.00
35654;PMS1003;21773;50.010;19.972;2023-03-12T02:04:38;22.40;21.60;19.00
35654;PMS1003;21773;50.010;19.972;2023-03-12T02:07:43;23.75;23.00;20.00
35654;PMS1003;21773;50.010;19.972;2023-03-12T02:10:47;25.20;25.00;21.00
35654;PMS1003;21773;50.010;19.972;2023-03-12T02:13:51;19.00;18.50;16.50
35654;PMS1003;21773;50.010;19.972;2023-03-12T02:16:55;25.40;23.00;19.80
35654;PMS1003;21773;50.010;19.972;2023-03-12T02:20:02;25.25;24.25;20.00
35654;PMS1003;21773;50.010;19.972;2023-03-12T02:23:16;23.00;22.00;20.00
35654;PMS1003;21773;50.010;19.972;2023-03-12T02:26:29;24.00;22.50;19.50
35654;PMS1003;21773;50.010;19.972;2023-03-12T02:29:37;18.00;17.00;15.00
35654;PMS1003;21773;50.010;19.972;2023-03-12T02:32:43;21.40;21.00;19.00
35654;PMS1003;21773;50.010;19.972;2023-03-12T02:35:50;21.00;21.00;18.60
35654;PMS1003;21773;50.010;19.972;2023-03-12T02:38:55;26.00;23.00;20.00
35654;PMS1003;21773;50.010;19.972;2023-03-12T02:42:00;24.60;22.60;19.80
35654;PMS1003;21773;50.010;19.972;2023-03-12T02:45:04;23.50;21.00;18.50
35654;PMS1003;21773;50.010;19.972;2023-03-12T02:48:08;25.60;24.00;20.00
35654;PMS1003;21773;50.010;19.972;2023-03-12T02:51:11;25.00;23.00;20.00
35654;PMS1003;21773;50.010;19.972;2023-03-12T02:54:16;23.60;21.60;19.60
35654;PMS1003;21773;50.010;19.972;2023-03-12T02:57:22;25.40;23.00;20.00
35654;PMS1003;21773;50.010;19.972;2023-03-12T03:00:25;24.20;22.60;20.00
35654;PMS1003;21773;50.010;19.972;2023-03-12T03:03:29;24.40;21.40;19.40
35654;PMS1003;21773;50.010;19.972;2023-03-12T03:06:32;23.80;22.20;19.00
35654;PMS1003;21773;50.010;19.972;2023-03-12T03:09:37;24.40;22.60;20.00
35654;PMS1003;21773;50.010;19.972;2023-03-12T03:12:42;22.20;20.00;17.80
35654;PMS1003;21773;50.010;19.972;2023-03-12T03:15:46;22.20;20.00;17.20
35654;PMS1003;21773;50.010;19.972;2023-03-12T03:18:50;23.00;21.20;19.20
35654;PMS1003;21773;50.010;19.972;2023-03-12T03:21:54;22.00;21.00;20.00
35654;PMS1003;21773;50.010;19.972;2023-03-12T03:24:57;16.50;15.00;13.75
35654;PMS1003;21773;50.010;19.972;2023-03-12T03:28:02;20.00;19.00;17.75
35654;PMS1003;21773;50.010;19.972;2023-03-12T03:31:06;20.00;18.00;15.00
35654;PMS1003;21773;50.010;19.972;2023-03-12T03:34:12;14.60;14.60;13.60
35654;PMS1003;21773;50.010;19.972;2023-03-12T03:37:15;14.80;14.00;12.80
35654;PMS1003;21773;50.010;19.972;2023-03-12T03:40:19;15.00;14.00;13.00
35654;PMS1003;21773;50.010;19.972;2023-03-12T03:43:24;14.40;13.40;12.20
35654;PMS1003;21773;50.010;19.972;2023-03-12T03:46:27;14.00;14.00;13.00
35654;PMS1003;21773;50.010;19.972;2023-03-12T03:49:35;13.00;12.60;11.60
35654;PMS1003;21773;50.010;19.972;2023-03-12T03:52:39;18.00;17.50;16.00
35654;PMS1003;21773;50.010;19.972;2023-03-12T03:55:42;16.25;15.00;13.25
35654;PMS1003;21773;50.010;19.972;2023-03-12T03:58:47;16.80;16.80;15.00
35654;PMS1003;21773;50.010;19.972;2023-03-12T04:01:53;16.33;14.00;13.00
35654;PMS1003;21773;50.010;19.972;2023-03-12T04:04:57;16.80;14.00;11.80
35654;PMS1003;21773;50.010;19.972;2023-03-12T04:08:01;20.00;16.50;15.00
35654;PMS1003;21773;50.010;19.972;2023-03-12T04:11:07;20.00;19.00;17.00
35654;PMS1003;21773;50.010;19.972;2023-03-12T04:14:13;17.50;17.00;15.50
35654;PMS1003;21773;50.010;19.972;2023-03-12T04:17:18;18.00;16.60;14.00
35654;PMS1003;21773;50.010;19.972;2023-03-12T04:20:22;16.75;16.50;14.25
35654;PMS1003;21773;50.010;19.972;2023-03-12T04:23:25;17.00;16.50;14.50
35654;PMS1003;21773;50.010;19.972;2023-03-12T04:26:29;17.00;16.00;14.00
35654;PMS1003;21773;50.010;19.972;2023-03-12T04:29:36;19.00;18.00;17.00
35654;PMS1003;21773;50.010;19.972;2023-03-12T04:32:42;14.00;13.00;11.00
35654;PMS1003;21773;50.010;19.972;2023-03-12T04:35:49;15.60;15.00;14.00
35654;PMS1003;21773;50.010;19.972;2023-03-12T04:38:54;15.60;15.00;13.60
35654;PMS1003;21773;50.010;19.972;2023-03-12T04:42:02;15.00;13.60;12.60
35654;PMS1003;21773;50.010;19.972;2023-03-12T04:45:08;16.00;15.00;13.00
35654;PMS1003;21773;50.010;19.972;2023-03-12T04:48:17;14.00;13.00;12.00
35654;PMS1003;21773;50.010;19.972;2023-03-12T04:51:21;16.60;14.00;12.00
35654;PMS1003;21773;50.010;19.972;2023-03-12T04:54:25;14.25;12.75;11.75
35654;PMS1003;21773;50.010;19.972;2023-03-12T04:57:29;13.00;12.00;11.00
35654;PMS1003;21773;50.010;19.972;2023-03-12T05:00:34;16.40;15.20;14.00
35654;PMS1003;21773;50.010;19.972;2023-03-12T05:03:38;20.00;18.40;16.40
35654;PMS1003;21773;50.010;19.972;2023-03-12T05:06:42;13.60;12.00;11.00
35654;PMS1003;21773;50.010;19.972;2023-03-12T05:09:45;14.00;14.00;13.00
35654;PMS1003;21773;50.010;19.972;2023-03-12T05:12:48;16.00;15.50;14.00
35654;PMS1003;21773;50.010;19.972;2023-03-12T05:15:54;13.00;12.00;11.00
35654;PMS1003;21773;50.010;19.972;2023-03-12T05:18:58;13.00;13.00;12.00
35654;PMS1003;21773;50.010;19.972;2023-03-12T05:22:04;13.40;13.40;12.40
35654;PMS1003;21773;50.010;19.972;2023-03-12T05:25:08;17.50;16.00;15.00
35654;PMS1003;21773;50.010;19.972;2023-03-12T05:28:12;16.00;14.50;14.00
35654;PMS1003;21773;50.010;19.972;2023-03-12T05:31:17;16.00;16.00;14.00
35654;PMS1003;21773;50.010;19.972;2023-03-12T05:34:22;16.60;16.00;14.00
35654;PMS1003;21773;50.010;19.972;2023-03-12T05:37:26;14.00;14.00;13.00
35654;PMS1003;21773;50.010;19.972;2023-03-12T05:40:30;15.80;14.80;12.80
35654;PMS1003;21773;50.010;19.972;2023-03-12T05:43:33;15.00;13.00;12.40
35654;PMS1003;21773;50.010;19.972;2023-03-12T05:46:38;12.25;12.00;10.75
35654;PMS1003;21773;50.010;19.972;2023-03-12T05:49:42;11.60;11.40;10.00
35654;PMS1003;21773;50.010;19.972;2023-03-12T05:52:45;14.00;14.00;13.00
35654;PMS1003;21773;50.010;19.972;2023-03-12T05:55:49;12.20;12.00;10.20
35654;PMS1003;21773;50.010;19.972;2023-03-12T05:58:53;13.00;13.00;12.50
35654;PMS1003;21773;50.010;19.972;2023-03-12T06:01:58;15.75;14.50;13.00
35654;PMS1003;21773;50.010;19.972;2023-03-12T06:05:01;16.00;15.40;13.40
35654;PMS1003;21773;50.010;19.972;2023-03-12T06:08:05;11.40;11.40;10.00
35654;PMS1003;21773;50.010;19.972;2023-03-12T06:11:08;12.25;11.25;9.75
35654;PMS1003;21773;50.010;19.972;2023-03-12T06:14:12;12.60;12.60;11.00
35654;PMS1003;21773;50.010;19.972;2023-03-12T06:17:17;12.00;12.00;11.00
35654;PMS1003;21773;50.010;19.972;2023-03-12T06:20:21;11.25;11.25;10.25
35654;PMS1003;21773;50.010;19.972;2023-03-12T06:23:25;13.00;12.00;11.00
35654;PMS1003;21773;50.010;19.972;2023-03-12T06:26:28;12.25;11.75;11.00
35654;PMS1003;21773;50.010;19.972;2023-03-12T06:29:32;11.25;10.75;9.75
35654;PMS1003;21773;50.010;19.972;2023-03-12T06:32:36;13.20;12.20;11.00
35654;PMS1003;21773;50.010;19.972;2023-03-12T06:35:40;11.00;10.00;9.00
35654;PMS1003;21773;50.010;19.972;2023-03-12T06:38:44;11.00;10.00;8.00
35654;PMS1003;21773;50.010;19.972;2023-03-12T06:41:47;12.75;11.75;11.00
35654;PMS1003;21773;50.010;19.972;2023-03-12T06:44:50;13.00;12.00;11.00
35654;PMS1003;21773;50.010;19.972;2023-03-12T06:47:55;13.00;12.00;10.00
35654;PMS1003;21773;50.010;19.972;2023-03-12T06:50:58;12.00;12.00;11.00
35654;PMS1003;21773;50.010;19.972;2023-03-12T06:54:02;12.00;11.00;10.00
35654;PMS1003;21773;50.010;19.972;2023-03-12T06:57:06;13.00;12.75;10.50
35654;PMS1003;21773;50.010;19.972;2023-03-12T07:00:10;9.40;8.20;7.40
35654;PMS1003;21773;50.010;19.972;2023-03-12T07:03:15;12.00;11.00;9.00
35654;PMS1003;21773;50.010;19.972;2023-03-12T07:06:19;13.00;12.60;11.00
35654;PMS1003;21773;50.010;19.972;2023-03-12T07:09:23;9.80;8.20;7.20
35654;PMS1003;21773;50.010;19.972;2023-03-12T07:12:27;13.80;12.00;11.00
35654;PMS1003;21773;50.010;19.972;2023-03-12T07:15:30;11.50;11.25;10.00
35654;PMS1003;21773;50.010;19.972;2023-03-12T07:18:35;12.00;11.00;10.00
35654;PMS1003;21773;50.010;19.972;2023-03-12T07:21:39;10.80;10.80;10.00
35654;PMS1003;21773;50.010;19.972;2023-03-12T07:24:42;9.00;8.00;7.00
35654;PMS1003;21773;50.010;19.972;2023-03-12T07:27:45;10.00;10.00;9.00
35654;PMS1003;21773;50.010;19.972;2023-03-12T07:30:49;10.60;9.60;9.00
35654;PMS1003;21773;50.010;19.972;2023-03-12T07:33:54;10.40;9.40;8.40
35654;PMS1003;21773;50.010;19.972;2023-03-12T07:36:57;8.40;7.60;7.40
35654;PMS1003;21773;50.010;19.972;2023-03-12T07:40:01;11.00;10.00;9.40
35654;PMS1003;21773;50.010;19.972;2023-03-12T07:43:08;8.60;8.00;7.60
35654;PMS1003;21773;50.010;19.972;2023-03-12T07:46:14;8.60;8.00;7.00
35654;PMS1003;21773;50.010;19.972;2023-03-12T07:49:19;7.40;7.40;7.00
35654;PMS1003;21773;50.010;19.972;2023-03-12T07:52:23;8.00;8.00;7.00
35654;PMS1003;21773;50.010;19.972;2023-03-12T07:55:26;8.00;8.00;7.40
35654;PMS1003;21773;50.010;19.972;2023-03-12T07:58:30;10.00;9.20;8.20
35654;PMS1003;21773;50.010;19.972;2023-03-12T08:01:34;7.00;6.00;6.00
35654;PMS1003;21773;50.010;19.972;2023-03-12T08:04:39;7.60;7.00;6.60
35654;PMS1003;21773;50.010;19.972;2023-03-12T08:07:42;13.00;13.00;12.00
35654;PMS1003;21773;50.010;19.972;2023-03-12T08:10:47;11.20;10.60;9.60
35654;PMS1003;21773;50.010;19.972;2023-03-12T08:13:50;8.20;7.20;6.60
35654;PMS1003;21773;50.010;19.972;2023-03-12T08:16:54;7.00;7.00;7.00
35654;PMS1003;21773;50.010;19.972;2023-03-12T08:19:58;9.00;8.00;8.00
35654;PMS1003;21773;50.010;19.972;2023-03-12T08:23:01;6.20;5.20;5.20
35654;PMS1003;21773;50.010;19.972;2023-03-12T08:26:05;7.40;6.40;5.80
35654;PMS1003;21773;50.010;19.972;2023-03-12T08:29:08;7.00;6.00;6.00
35654;PMS1003;21773;50.010;19.972;2023-03-12T08:32:12;7.50;7.00;6.50
35654;PMS1003;21773;50.010;19.972;2023-03-12T08:35:17;6.00;6.00;5.50
35654;PMS1003;21773;50.010;19.972;2023-03-12T08:38:23;5.60;5.60;5.00
35654;PMS1003;21773;50.010;19.972;2023-03-12T08:41:27;6.80;5.60;5.00
35654;PMS1003;21773;50.010;19.972;2023-03-12T08:44:30;4.50;4.50;4.00
35654;PMS1003;21773;50.010;19.972;2023-03-12T08:47:34;7.00;6.00;6.00
35654;PMS1003;21773;50.010;19.972;2023-03-12T08:50:39;6.00;6.00;5.00
35654;PMS1003;21773;50.010;19.972;2023-03-12T08:53:43;6.50;6.50;6.00
35654;PMS1003;21773;50.010;19.972;2023-03-12T08:56:48;6.60;5.60;5.00
35654;PMS1003;21773;50.010;19.972;2023-03-12T08:59:52;6.20;6.20;6.00
35654;PMS1003;21773;50.010;19.972;2023-03-12T09:02:56;5.00;5.00;4.80
35654;PMS1003;21773;50.010;19.972;2023-03-12T09:06:05;6.00;6.00;5.60
35654;PMS1003;21773;50.010;19.972;2023-03-12T09:09:13;5.00;5.00;5.00
35654;PMS1003;21773;50.010;19.972;2023-03-12T09:12:17;6.00;6.00;6.00
35654;PMS1003;21773;50.010;19.972;2023-03-12T09:15:20;4.00;4.00;4.00
35654;PMS1003;21773;50.010;19.972;2023-03-12T09:18:23;6.00;6.00;5.25
35654;PMS1003;21773;50.010;19.972;2023-03-12T09:21:28;7.00;7.00;6.00
35654;PMS1003;21773;50.010;19.972;2023-03-12T09:24:32;5.60;5.60;5.00
35654;PMS1003;21773;50.010;19.972;2023-03-12T09:27:36;5.60;5.60;5.00
35654;PMS1003;21773;50.010;19.972;2023-03-12T09:30:39;6.00;5.40;4.60
35654;PMS1003;21773;50.010;19.972;2023-03-12T09:33:43;5.00;5.00;4.00
35654;PMS1003;21773;50.010;19.972;2023-03-12T09:36:49;4.50;4.00;4.00
35654;PMS1003;21773;50.010;19.972;2023-03-12T09:39:52;6.00;6.00;6.00
35654;PMS1003;21773;50.010;19.972;2023-03-12T09:42:57;6.00;5.50;5.00
35654;PMS1003;21773;50.010;19.972;2023-03-12T09:46:07;6.00;5.00;4.60
35654;PMS1003;21773;50.010;19.972;2023-03-12T09:49:18;5.00;4.00;4.00
35654;PMS1003;21773;50.010;19.972;2023-03-12T09:52:28;5.40;5.00;4.40
35654;PMS1003;21773;50.010;19.972;2023-03-12T09:55:35;5.40;5.40;5.40
35654;PMS1003;21773;50.010;19.972;2023-03-12T09:58:41;6.00;5.40;5.00
35654;PMS1003;21773;50.010;19.972;2023-03-12T10:01:49;6.00;4.00;4.00
35654;PMS1003;21773;50.010;19.972;2023-03-12T10:04:56;4.00;4.00;3.00
35654;PMS1003;21773;50.010;19.972;2023-03-12T10:08:08;4.40;4.40;4.40
35654;PMS1003;21773;50.010;19.972;2023-03-12T10:11:33;5.00;5.00;4.75
35654;PMS1003;21773;50.010;19.972;2023-03-12T10:14:47;5.80;5.00;4.80
35654;PMS1003;21773;50.010;19.972;2023-03-12T10:18:06;5.00;5.00;5.00
35654;PMS1003;21773;50.010;19.972;2023-03-12T10:21:19;4.25;3.25;3.00
35654;PMS1003;21773;50.010;19.972;2023-03-12T10:24:32;7.00;7.00;6.00
35654;PMS1003;21773;50.010;19.972;2023-03-12T10:27:47;6.00;5.00;4.00
35654;PMS1003;21773;50.010;19.972;2023-03-12T10:30:52;6.00;5.40;5.00
35654;PMS1003;21773;50.010;19.972;2023-03-12T10:33:59;6.00;5.40;5.00
35654;PMS1003;21773;50.010;19.972;2023-03-12T10:37:04;5.00;4.00;4.00
35654;PMS1003;21773;50.010;19.972;2023-03-12T10:40:19;7.00;6.00;6.00
35654;PMS1003;21773;50.010;19.972;2023-03-12T10:43:24;10.00;8.60;7.60
35654;PMS1003;21773;50.010;19.972;2023-03-12T10:46:40;6.80;6.40;5.40
35654;PMS1003;21773;50.010;19.972;2023-03-12T10:49:53;6.00;6.00;5.00
35654;PMS1003;21773;50.010;19.972;2023-03-12T10:53:22;6.40;6.40;6.00
35654;PMS1003;21773;50.010;19.972;2023-03-12T10:56:32;6.00;5.00;4.00
35654;PMS1003;21773;50.010;19.972;2023-03-12T10:59:50;7.80;7.80;6.00
35654;PMS1003;21773;50.010;19.972;2023-03-12T11:02:54;4.20;4.00;3.20
35654;PMS1003;21773;50.010;19.972;2023-03-12T11:06:01;8.40;8.00;7.60
35654;PMS1003;21773;50.010;19.972;2023-03-12T11:09:14;5.00;5.00;4.60
35654;PMS1003;21773;50.010;19.972;2023-03-12T11:12:26;10.25;7.00;6.00
35654;PMS1003;21773;50.010;19.972;2023-03-12T11:15:38;6.40;6.00;6.00
35654;PMS1003;21773;50.010;19.972;2023-03-12T11:18:52;7.00;6.40;6.00
35654;PMS1003;21773;50.010;19.972;2023-03-12T11:21:58;7.00;6.00;6.00
35654;PMS1003;21773;50.010;19.972;2023-03-12T11:25:04;7.40;7.40;7.00
35654;PMS1003;21773;50.010;19.972;2023-03-12T11:28:19;8.00;8.00;7.00
35654;PMS1003;21773;50.010;19.972;2023-03-12T11:31:26;7.00;6.00;5.00
35654;PMS1003;21773;50.010;19.972;2023-03-12T11:34:34;9.00;7.00;6.00
35654;PMS1003;21773;50.010;19.972;2023-03-12T11:37:42;8.00;7.00;6.20
35654;PMS1003;21773;50.010;19.972;2023-03-12T11:40:58;7.00;7.00;6.00
35654;PMS1003;21773;50.010;19.972;2023-03-12T11:44:18;7.00;6.50;6.00
35654;PMS1003;21773;50.010;19.972;2023-03-12T11:47:38;7.00;7.00;6.00
35654;PMS1003;21773;50.010;19.972;2023-03-12T11:50:56;7.40;6.00;6.00
35654;PMS1003;21773;50.010;19.972;2023-03-12T11:54:24;8.20;8.20;7.80
35654;PMS1003;21773;50.010;19.972;2023-03-12T11:57:46;9.60;8.60;8.00
35654;PMS1003;21773;50.010;19.972;2023-03-12T12:01:01;9.25;7.00;6.00
35654;PMS1003;21773;50.010;19.972;2023-03-12T12:08:12;9.00;8.00;7.00
35654;PMS1003;21773;50.010;19.972;2023-03-12T12:11:28;7.20;7.20;7.00
35654;PMS1003;21773;50.010;19.972;2023-03-12T12:14:46;9.00;9.00;8.00
35654;PMS1003;21773;50.010;19.972;2023-03-12T12:18:04;8.60;7.60;6.60
35654;PMS1003;21773;50.010;19.972;2023-03-12T12:21:26;8.60;8.60;8.00
35654;PMS1003;21773;50.010;19.972;2023-03-12T12:24:40;8.00;8.00;7.25
35654;PMS1003;21773;50.010;19.972;2023-03-12T12:28:00;9.00;9.00;8.00
35654;PMS1003;21773;50.010;19.972;2023-03-12T12:31:17;9.40;8.00;7.00
35654;PMS1003;21773;50.010;19.972;2023-03-12T12:34:42;12.00;10.80;9.80
35654;PMS1003;21773;50.010;19.972;2023-03-12T12:37:55;9.75;8.75;8.00
35654;PMS1003;21773;50.010;19.972;2023-03-12T12:41:05;11.00;10.00;9.00
35654;PMS1003;21773;50.010;19.972;2023-03-12T12:44:12;11.60;11.00;10.00
35654;PMS1003;21773;50.010;19.972;2023-03-12T12:47:21;9.50;9.00;7.75
35654;PMS1003;21773;50.010;19.972;2023-03-12T12:50:36;8.60;8.60;7.60
35654;PMS1003;21773;50.010;19.972;2023-03-12T12:53:43;12.00;11.00;10.75
35654;PMS1003;21773;50.010;19.972;2023-03-12T12:56:52;9.60;8.00;8.00
35654;PMS1003;21773;50.010;19.972;2023-03-12T13:00:08;10.00;10.00;8.00
35654;PMS1003;21773;50.010;19.972;2023-03-12T13:03:22;7.80;7.00;6.00
35654;PMS1003;21773;50.010;19.972;2023-03-12T13:06:30;9.25;9.25;8.25
35654;PMS1003;21773;50.010;19.972;2023-03-12T13:09:57;9.00;9.00;8.00
35654;PMS1003;21773;50.010;19.972;2023-03-12T13:13:03;7.20;7.20;7.20
35654;PMS1003;21773;50.010;19.972;2023-03-12T13:16:16;9.00;8.00;7.00
35654;PMS1003;21773;50.010;19.972;2023-03-12T13:19:28;9.25;9.25;9.00
35654;PMS1003;21773;50.010;19.972;2023-03-12T13:22:43;7.40;6.40;6.20
35654;PMS1003;21773;50.010;19.972;2023-03-12T13:25:57;9.00;8.00;8.00
35654;PMS1003;21773;50.010;19.972;2023-03-12T13:29:12;9.00;9.00;8.50
35654;PMS1003;21773;50.010;19.972;2023-03-12T13:32:37;9.00;9.00;8.00
35654;PMS1003;21773;50.010;19.972;2023-03-12T13:36:03;9.00;9.00;8.00
35654;PMS1003;21773;50.010;19.972;2023-03-12T13:39:25;9.50;8.50;8.00
35654;PMS1003;21773;50.010;19.972;2023-03-12T13:42:37;8.80;8.00;7.00
35654;PMS1003;21773;50.010;19.972;2023-03-12T13:45:53;10.00;8.60;7.60
35654;PMS1003;21773;50.010;19.972;2023-03-12T13:49:02;11.00;9.00;8.60
35654;PMS1003;21773;50.010;19.972;2023-03-12T13:52:18;8.00;8.00;7.00
35654;PMS1003;21773;50.010;19.972;2023-03-12T13:55:26;11.00;10.00;9.00
35654;PMS1003;21773;50.010;19.972;2023-03-12T13:58:31;9.40;9.40;8.40
35654;PMS1003;21773;50.010;19.972;2023-03-12T14:01:44;8.25;8.25;7.25
35654;PMS1003;21773;50.010;19.972;2023-03-12T14:04:51;8.00;8.00;7.00
35654;PMS1003;21773;50.010;19.972;2023-03-12T14:08:10;9.00;8.25;8.00
35654;PMS1003;21773;50.010;19.972;2023-03-12T14:11:30;9.00;9.00;8.00
35654;PMS1003;21773;50.010;19.972;2023-03-12T14:14:53;8.80;8.60;7.80
35654;PMS1003;21773;50.010;19.972;2023-03-12T14:18:09;7.60;7.60;7.00
35654;PMS1003;21773;50.010;19.972;2023-03-12T14:21:17;6.40;6.40;6.00
35654;PMS1003;21773;50.010;19.972;2023-03-12T14:24:24;7.00;7.00;6.25
35654;PMS1003;21773;50.010;19.972;2023-03-12T14:27:32;7.00;6.00;5.00
35654;PMS1003;21773;50.010;19.972;2023-03-12T14:30:43;10.00;9.00;8.00
35654;PMS1003;21773;50.010;19.972;2023-03-12T14:33:52;6.40;6.40;6.00
35654;PMS1003;21773;50.010;19.972;2023-03-12T14:37:01;9.00;8.00;8.00
35654;PMS1003;21773;50.010;19.972;2023-03-12T14:40:16;8.80;8.00;7.00
35654;PMS1003;21773;50.010;19.972;2023-03-12T14:43:26;7.20;7.20;7.00
35654;PMS1003;21773;50.010;19.972;2023-03-12T14:46:30;9.00;8.00;7.00
35654;PMS1003;21773;50.010;19.972;2023-03-12T14:49:38;9.67;9.00;8.67
35654;PMS1003;21773;50.010;19.972;2023-03-12T14:52:43;8.00;8.00;7.00
35654;PMS1003;21773;50.010;19.972;2023-03-12T14:55:46;8.00;7.50;7.00
35654;PMS1003;21773;50.010;19.972;2023-03-12T14:59:03;10.00;9.40;9.00
35654;PMS1003;21773;50.010;19.972;2023-03-12T15:02:23;7.50;7.50;7.00
35654;PMS1003;21773;50.010;19.972;2023-03-12T15:05:28;9.00;8.00;8.00
35654;PMS1003;21773;50.010;19.972;2023-03-12T15:08:42;8.00;7.25;7.00
35654;PMS1003;21773;50.010;19.972;2023-03-12T15:11:50;8.00;8.00;7.00
35654;PMS1003;21773;50.010;19.972;2023-03-12T15:15:00;8.60;8.60;8.00
35654;PMS1003;21773;50.010;19.972;2023-03-12T15:18:10;9.00;8.60;8.00
35654;PMS1003;21773;50.010;19.972;2023-03-12T15:21:17;9.00;8.00;7.67
35654;PMS1003;21773;50.010;19.972;2023-03-12T15:24:21;7.50;7.00;6.75
35654;PMS1003;21773;50.010;19.972;2023-03-12T15:27:30;6.60;6.40;5.60
35654;PMS1003;21773;50.010;19.972;2023-03-12T15:30:36;6.20;6.00;6.00
35654;PMS1003;21773;50.010;19.972;2023-03-12T15:33:41;10.00;9.00;8.50
35654;PMS1003;21773;50.010;19.972;2023-03-12T15:36:46;7.00;7.00;6.20
35654;PMS1003;21773;50.010;19.972;2023-03-12T15:39:52;8.00;7.40;6.40
35654;PMS1003;21773;50.010;19.972;2023-03-12T15:42:57;8.00;7.00;7.00
35654;PMS1003;21773;50.010;19.972;2023-03-12T15:46:05;8.00;7.80;6.80
35654;PMS1003;21773;50.010;19.972;2023-03-12T15:49:10;9.00;8.00;8.00
35654;PMS1003;21773;50.010;19.972;2023-03-12T15:52:28;8.80;8.80;8.20
35654;PMS1003;21773;50.010;19.972;2023-03-12T15:55:34;6.20;6.20;6.00
35654;PMS1003;21773;50.010;19.972;2023-03-12T15:58:39;8.00;7.80;6.80
35654;PMS1003;21773;50.010;19.972;2023-03-12T16:01:45;8.00;8.00;7.00
35654;PMS1003;21773;50.010;19.972;2023-03-12T16:04:49;6.00;5.00;5.00
35654;PMS1003;21773;50.010;19.972;2023-03-12T16:07:53;7.60;7.00;6.60
35654;PMS1003;21773;50.010;19.972;2023-03-12T16:10:56;8.00;8.00;7.40
35654;PMS1003;21773;50.010;19.972;2023-03-12T16:14:01;8.00;7.00;6.00
35654;PMS1003;21773;50.010;19.972;2023-03-12T16:17:10;6.60;6.60;5.60
35654;PMS1003;21773;50.010;19.972;2023-03-12T16:20:17;9.00;9.00;9.00
35654;PMS1003;21773;50.010;19.972;2023-03-12T16:23:21;7.00;7.00;6.60
35654;PMS1003;21773;50.010;19.972;2023-03-12T16:26:24;9.00;7.50;7.00
35654;PMS1003;21773;50.010;19.972;2023-03-12T16:29:29;8.00;7.00;6.80
35654;PMS1003;21773;50.010;19.972;2023-03-12T16:32:36;9.80;9.80;9.00
35654;PMS1003;21773;50.010;19.972;2023-03-12T16:35:40;9.00;9.00;9.00
35654;PMS1003;21773;50.010;19.972;2023-03-12T16:38:44;5.60;5.20;5.00
35654;PMS1003;21773;50.010;19.972;2023-03-12T16:41:47;8.00;8.00;7.00
35654;PMS1003;21773;50.010;19.972;2023-03-12T16:44:50;12.00;12.00;10.00
35654;PMS1003;21773;50.010;19.972;2023-03-12T16:47:56;10.00;9.00;8.00
35654;PMS1003;21773;50.010;19.972;2023-03-12T16:51:02;9.40;9.40;9.00
35654;PMS1003;21773;50.010;19.972;2023-03-12T16:54:09;8.80;8.80;7.80
35654;PMS1003;21773;50.010;19.972;2023-03-12T16:57:15;11.00;10.40;9.60
35654;PMS1003;21773;50.010;19.972;2023-03-12T17:00:26;10.00;9.00;8.00
35654;PMS1003;21773;50.010;19.972;2023-03-12T17:03:32;12.00;10.00;9.40
35654;PMS1003;21773;50.010;19.972;2023-03-12T17:06:38;11.60;9.60;8.60
35654;PMS1003;21773;50.010;19.972;2023-03-12T17:09:42;13.25;13.00;12.00
35654;PMS1003;21773;50.010;19.972;2023-03-12T17:12:45;11.40;11.40;9.60
35654;PMS1003;21773;50.010;19.972;2023-03-12T17:15:49;11.20;10.80;9.00
35654;PMS1003;21773;50.010;19.972;2023-03-12T17:18:55;11.50;10.50;10.00
35654;PMS1003;21773;50.010;19.972;2023-03-12T17:21:58;13.40;13.00;12.00
35654;PMS1003;21773;50.010;19.972;2023-03-12T17:25:03;12.60;12.00;11.00
35654;PMS1003;21773;50.010;19.972;2023-03-12T17:28:07;11.50;11.50;11.50
35654;PMS1003;21773;50.010;19.972;2023-03-12T17:31:13;12.00;12.00;10.00
35654;PMS1003;21773;50.010;19.972;2023-03-12T17:34:18;13.00;12.40;11.00
35654;PMS1003;21773;50.010;19.972;2023-03-12T17:37:21;10.00;9.60;9.00
35654;PMS1003;21773;50.010;19.972;2023-03-12T17:40:24;11.00;11.00;9.00
35654;PMS1003;21773;50.010;19.972;2023-03-12T17:43:28;12.00;11.00;10.20